sensor_id;sensor_type;location;lat;lon;timestamp;temperature;humidity
38239;DHT22;24035;48.900;9.188;2023-11-18T00:00:58;5.00;97.00
38239;DHT22;24035;48.900;9.188;2023-11-18T00:03:24;4.90;99.90
38239;DHT22;24035;48.900;9.188;2023-11-18T00:05:50;4.90;1.00
38239;DHT22;24035;48.900;9.188;2023-11-18T00:08:15;4.80;99.90
38239;DHT22;24035;48.900;9.188;2023-11-18T00:10:41;4.70;99.90
38239;DHT22;24035;48.900;9.188;2023-11-18T00:13:07;4.70;1.00
38239;DHT22;24035;48.900;9.188;2023-11-18T00:15:32;4.70;1.00
38239;DHT22;24035;48.900;9.188;2023-11-18T00:18:00;4.60;1.00
38239;DHT22;24035;48.900;9.188;2023-11-18T00:20:26;4.70;99.90
38239;DHT22;24035;48.900;9.188;2023-11-18T00:22:51;4.60;93.20
38239;DHT22;24035;48.900;9.188;2023-11-18T00:25:18;4.50;1.00
38239;DHT22;24035;48.900;9.188;2023-11-18T00:27:44;4.30;1.00
38239;DHT22;24035;48.900;9.188;2023-11-18T00:30:10;4.30;1.00
38239;DHT22;24035;48.900;9.188;2023-11-18T00:32:39;4.20;99.90
38239;DHT22;24035;48.900;9.188;2023-11-18T00:35:05;4.20;99.90
38239;DHT22;24035;48.900;9.188;2023-11-18T00:37:31;4.10;99.90
38239;DHT22;24035;48.900;9.188;2023-11-18T00:39:57;4.10;1.00
38239;DHT22;24035;48.900;9.188;2023-11-18T00:42:23;4.00;1.00
38239;DHT22;24035;48.900;9.188;2023-11-18T00:44:48;4.00;1.00
38239;DHT22;24035;48.900;9.188;2023-11-18T00:47:14;4.00;1.00
38239;DHT22;24035;48.900;9.188;2023-11-18T00:49:40;4.00;18.50
38239;DHT22;24035;48.900;9.188;2023-11-18T00:52:05;4.00;99.90
38239;DHT22;24035;48.900;9.188;2023-11-18T00:54:31;4.00;99.90
38239;DHT22;24035;48.900;9.188;2023-11-18T00:56:57;4.10;1.00
38239;DHT22;24035;48.900;9.188;2023-11-18T00:59:23;4.20;1.00
38239;DHT22;24035;48.900;9.188;2023-11-18T01:01:49;4.30;1.00
38239;DHT22;24035;48.900;9.188;2023-11-18T01:04:15;4.40;1.00
38239;DHT22;24035;48.900;9.188;2023-11-18T01:06:42;4.40;1.00
38239;DHT22;24035;48.900;9.188;2023-11-18T01:09:08;4.40;1.00
38239;DHT22;24035;48.900;9.188;2023-11-18T01:11:35;4.50;1.00
38239;DHT22;24035;48.900;9.188;2023-11-18T01:14:01;4.50;8.40
38239;DHT22;24035;48.900;9.188;2023-11-18T01:16:27;4.60;99.90
38239;DHT22;24035;48.900;9.188;2023-11-18T01:18:54;4.70;99.90
38239;DHT22;24035;48.900;9.188;2023-11-18T01:21:20;4.70;99.90
38239;DHT22;24035;48.900;9.188;2023-11-18T01:23:46;4.80;99.90
38239;DHT22;24035;48.900;9.188;2023-11-18T01:26:12;4.70;1.00
38239;DHT22;24035;48.900;9.188;2023-11-18T01:28:41;4.60;1.00
38239;DHT22;24035;48.900;9.188;2023-11-18T01:31:08;4.70;1.00
38239;DHT22;24035;48.900;9.188;2023-11-18T01:33:38;4.70;1.00
38239;DHT22;24035;48.900;9.188;2023-11-18T01:36:09;4.80;20.80
38239;DHT22;24035;48.900;9.188;2023-11-18T01:38:38;4.80;10.30
38239;DHT22;24035;48.900;9.188;2023-11-18T01:41:04;4.90;14.30
38239;DHT22;24035;48.900;9.188;2023-11-18T01:43:31;4.90;95.10
38239;DHT22;24035;48.900;9.188;2023-11-18T01:46:02;5.00;99.90
38239;DHT22;24035;48.900;9.188;2023-11-18T01:48:29;5.10;99.90
38239;DHT22;24035;48.900;9.188;2023-11-18T01:50:59;5.20;99.90
38239;DHT22;24035;48.900;9.188;2023-11-18T01:53:26;5.20;99.90
38239;DHT22;24035;48.900;9.188;2023-11-18T01:55:53;5.30;99.90
38239;DHT22;24035;48.900;9.188;2023-11-18T01:58:20;5.30;99.90
38239;DHT22;24035;48.900;9.188;2023-11-18T02:00:50;5.40;97.50
38239;DHT22;24035;48.900;9.188;2023-11-18T02:03:17;5.30;1.00
38239;DHT22;24035;48.900;9.188;2023-11-18T02:05:43;5.20;1.00
38239;DHT22;24035;48.900;9.188;2023-11-18T02:08:10;5.20;1.00
38239;DHT22;24035;48.900;9.188;2023-11-18T02:10:55;5.20;1.00
38239;DHT22;24035;48.900;9.188;2023-11-18T02:13:23;5.20;99.90
38239;DHT22;24035;48.900;9.188;2023-11-18T02:15:56;5.20;1.00
38239;DHT22;24035;48.900;9.188;2023-11-18T02:18:29;5.30;1.00
38239;DHT22;24035;48.900;9.188;2023-11-18T02:20:55;5.40;1.00
38239;DHT22;24035;48.900;9.188;2023-11-18T02:23:25;5.40;1.00
38239;DHT22;24035;48.900;9.188;2023-11-18T02:25:54;5.40;1.00
38239;DHT22;24035;48.900;9.188;2023-11-18T02:28:23;5.40;99.90
38239;DHT22;24035;48.900;9.188;2023-11-18T02:30:50;5.50;1.00
38239;DHT22;24035;48.900;9.188;2023-11-18T02:33:27;5.60;1.00
38239;DHT22;24035;48.900;9.188;2023-11-18T02:36:09;5.60;1.00
38239;DHT22;24035;48.900;9.188;2023-11-18T02:38:42;5.60;99.90
38239;DHT22;24035;48.900;9.188;2023-11-18T02:41:12;5.60;99.90
38239;DHT22;24035;48.900;9.188;2023-11-18T02:43:39;5.50;1.00
38239;DHT22;24035;48.900;9.188;2023-11-18T02:46:07;5.40;1.00
38239;DHT22;24035;48.900;9.188;2023-11-18T02:48:34;5.30;99.90
38239;DHT22;24035;48.900;9.188;2023-11-18T02:50:59;5.20;61.20
38239;DHT22;24035;48.900;9.188;2023-11-18T02:53:25;5.10;99.90
38239;DHT22;24035;48.900;9.188;2023-11-18T02:55:51;5.20;99.90
38239;DHT22;24035;48.900;9.188;2023-11-18T02:58:18;5.20;1.00
38239;DHT22;24035;48.900;9.188;2023-11-18T03:00:44;5.30;1.00
38239;DHT22;24035;48.900;9.188;2023-11-18T03:03:10;5.30;1.00
38239;DHT22;24035;48.900;9.188;2023-11-18T03:05:37;5.30;1.00
38239;DHT22;24035;48.900;9.188;2023-11-18T03:08:03;5.40;1.00
38239;DHT22;24035;48.900;9.188;2023-11-18T03:10:32;5.40;1.00
38239;DHT22;24035;48.900;9.188;2023-11-18T03:13:01;5.40;1.00
38239;DHT22;24035;48.900;9.188;2023-11-18T03:15:27;5.40;1.00
38239;DHT22;24035;48.900;9.188;2023-11-18T03:17:54;5.40;1.00
38239;DHT22;24035;48.900;9.188;2023-11-18T03:20:21;5.40;99.90
38239;DHT22;24035;48.900;9.188;2023-11-18T03:22:49;5.40;99.90
38239;DHT22;24035;48.900;9.188;2023-11-18T03:25:16;5.40;99.90
38239;DHT22;24035;48.900;9.188;2023-11-18T03:27:43;5.30;28.70
38239;DHT22;24035;48.900;9.188;2023-11-18T03:30:10;5.30;1.00
38239;DHT22;24035;48.900;9.188;2023-11-18T03:32:36;5.30;1.00
38239;DHT22;24035;48.900;9.188;2023-11-18T03:35:03;5.40;57.20
38239;DHT22;24035;48.900;9.188;2023-11-18T03:37:32;5.40;1.00
38239;DHT22;24035;48.900;9.188;2023-11-18T03:39:58;5.30;1.00
38239;DHT22;24035;48.900;9.188;2023-11-18T03:42:24;5.30;1.00
38239;DHT22;24035;48.900;9.188;2023-11-18T03:44:49;5.20;1.00
38239;DHT22;24035;48.900;9.188;2023-11-18T03:47:15;5.10;99.90
38239;DHT22;24035;48.900;9.188;2023-11-18T03:49:41;5.00;99.90
38239;DHT22;24035;48.900;9.188;2023-11-18T03:52:07;5.00;99.90
38239;DHT22;24035;48.900;9.188;2023-11-18T03:54:33;5.00;1.00
38239;DHT22;24035;48.900;9.188;2023-11-18T03:56:58;5.00;1.00
38239;DHT22;24035;48.900;9.188;2023-11-18T03:59:25;5.00;1.00
38239;DHT22;24035;48.900;9.188;2023-11-18T04:01:51;5.10;50.00
38239;DHT22;24035;48.900;9.188;2023-11-18T04:04:17;5.20;99.90
38239;DHT22;24035;48.900;9.188;2023-11-18T04:06:43;5.30;99.90
38239;DHT22;24035;48.900;9.188;2023-11-18T04:09:09;5.40;99.90
38239;DHT22;24035;48.900;9.188;2023-11-18T04:11:36;5.30;61.30
38239;DHT22;24035;48.900;9.188;2023-11-18T04:14:01;5.40;99.90
38239;DHT22;24035;48.900;9.188;2023-11-18T04:16:29;5.50;99.90
38239;DHT22;24035;48.900;9.188;2023-11-18T04:18:54;5.50;99.90
38239;DHT22;24035;48.900;9.188;2023-11-18T04:21:21;5.60;99.90
38239;DHT22;24035;48.900;9.188;2023-11-18T04:23:47;5.60;47.30
38239;DHT22;24035;48.900;9.188;2023-11-18T04:26:13;5.60;1.00
38239;DHT22;24035;48.900;9.188;2023-11-18T04:28:38;5.60;1.00
38239;DHT22;24035;48.900;9.188;2023-11-18T04:31:05;5.70;1.00
38239;DHT22;24035;48.900;9.188;2023-11-18T04:33:31;5.60;1.00
38239;DHT22;24035;48.900;9.188;2023-11-18T04:35:57;5.60;99.90
38239;DHT22;24035;48.900;9.188;2023-11-18T04:38:23;5.50;99.90
38239;DHT22;24035;48.900;9.188;2023-11-18T04:40:49;5.40;1.00
38239;DHT22;24035;48.900;9.188;2023-11-18T04:43:15;5.20;1.00
38239;DHT22;24035;48.900;9.188;2023-11-18T04:45:44;5.10;1.00
38239;DHT22;24035;48.900;9.188;2023-11-18T04:48:09;5.00;1.00
38239;DHT22;24035;48.900;9.188;2023-11-18T04:50:35;4.90;99.90
38239;DHT22;24035;48.900;9.188;2023-11-18T04:53:01;4.80;99.90
38239;DHT22;24035;48.900;9.188;2023-11-18T04:55:28;4.70;99.90
38239;DHT22;24035;48.900;9.188;2023-11-18T04:57:55;4.70;1.00
38239;DHT22;24035;48.900;9.188;2023-11-18T05:00:21;4.70;1.00
38239;DHT22;24035;48.900;9.188;2023-11-18T05:02:47;4.60;1.00
38239;DHT22;24035;48.900;9.188;2023-11-18T05:05:16;4.60;1.00
38239;DHT22;24035;48.900;9.188;2023-11-18T05:07:43;4.60;99.90
38239;DHT22;24035;48.900;9.188;2023-11-18T05:10:09;4.60;99.90
38239;DHT22;24035;48.900;9.188;2023-11-18T05:12:39;4.50;99.90
38239;DHT22;24035;48.900;9.188;2023-11-18T05:15:09;4.50;99.90
38239;DHT22;24035;48.900;9.188;2023-11-18T05:17:36;4.50;1.00
38239;DHT22;24035;48.900;9.188;2023-11-18T05:20:03;4.40;1.00
38239;DHT22;24035;48.900;9.188;2023-11-18T05:22:29;4.40;1.00
38239;DHT22;24035;48.900;9.188;2023-11-18T05:24:57;4.40;1.00
38239;DHT22;24035;48.900;9.188;2023-11-18T05:27:23;4.50;60.20
38239;DHT22;24035;48.900;9.188;2023-11-18T05:29:48;4.40;1.00
38239;DHT22;24035;48.900;9.188;2023-11-18T05:32:22;4.40;1.00
38239;DHT22;24035;48.900;9.188;2023-11-18T05:34:52;4.30;1.00
38239;DHT22;24035;48.900;9.188;2023-11-18T05:37:19;4.30;99.90
38239;DHT22;24035;48.900;9.188;2023-11-18T05:39:45;4.40;99.90
38239;DHT22;24035;48.900;9.188;2023-11-18T05:42:12;4.30;28.50
38239;DHT22;24035;48.900;9.188;2023-11-18T05:44:38;4.30;99.90
38239;DHT22;24035;48.900;9.188;2023-11-18T05:47:06;4.30;1.00
38239;DHT22;24035;48.900;9.188;2023-11-18T05:49:33;4.20;83.30
38239;DHT22;24035;48.900;9.188;2023-11-18T05:51:59;4.30;99.90
38239;DHT22;24035;48.900;9.188;2023-11-18T05:54:25;4.30;99.90
38239;DHT22;24035;48.900;9.188;2023-11-18T05:56:51;4.20;99.90
38239;DHT22;24035;48.900;9.188;2023-11-18T05:59:16;4.20;99.90
38239;DHT22;24035;48.900;9.188;2023-11-18T06:01:42;4.30;99.90
38239;DHT22;24035;48.900;9.188;2023-11-18T06:04:08;4.20;22.90
38239;DHT22;24035;48.900;9.188;2023-11-18T06:06:34;4.10;1.00
38239;DHT22;24035;48.900;9.188;2023-11-18T06:09:00;4.10;1.00
38239;DHT22;24035;48.900;9.188;2023-11-18T06:11:30;4.10;1.00
38239;DHT22;24035;48.900;9.188;2023-11-18T06:13:57;4.10;13.50
38239;DHT22;24035;48.900;9.188;2023-11-18T06:16:24;4.10;99.90
38239;DHT22;24035;48.900;9.188;2023-11-18T06:18:55;4.10;99.90
38239;DHT22;24035;48.900;9.188;2023-11-18T06:21:23;4.00;99.90
38239;DHT22;24035;48.900;9.188;2023-11-18T06:23:57;4.00;99.90
38239;DHT22;24035;48.900;9.188;2023-11-18T06:26:24;4.10;99.90
38239;DHT22;24035;48.900;9.188;2023-11-18T06:28:53;3.90;99.90
38239;DHT22;24035;48.900;9.188;2023-11-18T06:31:19;4.00;99.90
38239;DHT22;24035;48.900;9.188;2023-11-18T06:33:46;4.10;1.00
38239;DHT22;24035;48.900;9.188;2023-11-18T06:38:48;4.30;99.90
38239;DHT22;24035;48.900;9.188;2023-11-18T06:41:16;4.30;43.30
38239;DHT22;24035;48.900;9.188;2023-11-18T06:43:44;4.40;1.00
38239;DHT22;24035;48.900;9.188;2023-11-18T06:46:24;4.30;1.00
38239;DHT22;24035;48.900;9.188;2023-11-18T06:48:54;4.40;1.00
38239;DHT22;24035;48.900;9.188;2023-11-18T06:51:23;4.30;1.00
38239;DHT22;24035;48.900;9.188;2023-11-18T06:53:53;4.30;1.00
38239;DHT22;24035;48.900;9.188;2023-11-18T06:56:20;4.20;1.00
38239;DHT22;24035;48.900;9.188;2023-11-18T06:58:46;4.20;1.00
38239;DHT22;24035;48.900;9.188;2023-11-18T07:01:13;4.10;1.00
38239;DHT22;24035;48.900;9.188;2023-11-18T07:03:41;4.20;1.00
38239;DHT22;24035;48.900;9.188;2023-11-18T07:06:07;4.20;1.00
38239;DHT22;24035;48.900;9.188;2023-11-18T07:08:35;4.20;1.00
38239;DHT22;24035;48.900;9.188;2023-11-18T07:11:02;4.10;1.00
38239;DHT22;24035;48.900;9.188;2023-11-18T07:13:28;4.20;1.00
38239;DHT22;24035;48.900;9.188;2023-11-18T07:15:54;4.30;1.00
38239;DHT22;24035;48.900;9.188;2023-11-18T07:18:22;4.30;1.00
38239;DHT22;24035;48.900;9.188;2023-11-18T07:20:48;4.30;1.00
38239;DHT22;24035;48.900;9.188;2023-11-18T07:23:17;4.40;11.50
38239;DHT22;24035;48.900;9.188;2023-11-18T07:25:44;4.50;99.90
38239;DHT22;24035;48.900;9.188;2023-11-18T07:28:13;4.60;99.90
38239;DHT22;24035;48.900;9.188;2023-11-18T07:30:43;4.70;99.90
38239;DHT22;24035;48.900;9.188;2023-11-18T07:33:18;4.70;99.90
38239;DHT22;24035;48.900;9.188;2023-11-18T07:35:48;4.70;99.90
38239;DHT22;24035;48.900;9.188;2023-11-18T07:38:14;4.70;99.90
38239;DHT22;24035;48.900;9.188;2023-11-18T07:40:40;4.80;99.90
38239;DHT22;24035;48.900;9.188;2023-11-18T07:43:29;4.80;99.90
38239;DHT22;24035;48.900;9.188;2023-11-18T07:45:55;4.90;99.90
38239;DHT22;24035;48.900;9.188;2023-11-18T07:48:21;5.00;1.00
38239;DHT22;24035;48.900;9.188;2023-11-18T07:50:47;5.20;1.00
38239;DHT22;24035;48.900;9.188;2023-11-18T07:53:13;5.30;1.00
38239;DHT22;24035;48.900;9.188;2023-11-18T07:55:40;5.40;1.00
38239;DHT22;24035;48.900;9.188;2023-11-18T07:58:09;5.50;1.00
38239;DHT22;24035;48.900;9.188;2023-11-18T08:00:41;5.60;1.00
38239;DHT22;24035;48.900;9.188;2023-11-18T08:03:08;5.70;1.00
38239;DHT22;24035;48.900;9.188;2023-11-18T08:05:41;5.70;40.80
38239;DHT22;24035;48.900;9.188;2023-11-18T08:08:07;5.80;1.00
38239;DHT22;24035;48.900;9.188;2023-11-18T08:10:34;5.80;99.90
38239;DHT22;24035;48.900;9.188;2023-11-18T08:13:04;5.90;13.60
38239;DHT22;24035;48.900;9.188;2023-11-18T08:15:30;6.00;1.00
38239;DHT22;24035;48.900;9.188;2023-11-18T08:17:56;6.10;1.00
38239;DHT22;24035;48.900;9.188;2023-11-18T08:20:22;6.10;1.00
38239;DHT22;24035;48.900;9.188;2023-11-18T08:22:50;6.20;1.00
38239;DHT22;24035;48.900;9.188;2023-11-18T08:25:16;6.30;1.00
38239;DHT22;24035;48.900;9.188;2023-11-18T08:27:46;6.40;1.00
38239;DHT22;24035;48.900;9.188;2023-11-18T08:30:12;6.50;99.90
38239;DHT22;24035;48.900;9.188;2023-11-18T08:32:39;6.60;1.00
38239;DHT22;24035;48.900;9.188;2023-11-18T08:35:06;6.80;99.90
38239;DHT22;24035;48.900;9.188;2023-11-18T08:37:36;6.90;1.00
38239;DHT22;24035;48.900;9.188;2023-11-18T08:40:03;7.00;99.90
38239;DHT22;24035;48.900;9.188;2023-11-18T08:42:33;7.00;1.00
38239;DHT22;24035;48.900;9.188;2023-11-18T08:45:00;7.00;1.00
38239;DHT22;24035;48.900;9.188;2023-11-18T08:47:27;7.10;99.90
38239;DHT22;24035;48.900;9.188;2023-11-18T08:49:52;7.20;1.00
38239;DHT22;24035;48.900;9.188;2023-11-18T08:52:18;7.20;1.00
38239;DHT22;24035;48.900;9.188;2023-11-18T08:54:44;7.20;99.90
38239;DHT22;24035;48.900;9.188;2023-11-18T08:57:46;7.40;99.90
38239;DHT22;24035;48.900;9.188;2023-11-18T09:00:26;7.60;99.90
38239;DHT22;24035;48.900;9.188;2023-11-18T09:03:12;7.70;1.00
38239;DHT22;24035;48.900;9.188;2023-11-18T09:08:28;7.50;99.90
38239;DHT22;24035;48.900;9.188;2023-11-18T09:10:57;7.50;99.90
38239;DHT22;24035;48.900;9.188;2023-11-18T09:13:24;7.50;1.00
38239;DHT22;24035;48.900;9.188;2023-11-18T09:16:01;7.40;19.90
38239;DHT22;24035;48.900;9.188;2023-11-18T09:18:34;7.40;19.50
38239;DHT22;24035;48.900;9.188;2023-11-18T09:21:01;7.50;9.10
38239;DHT22;24035;48.900;9.188;2023-11-18T09:23:29;7.60;1.00
38239;DHT22;24035;48.900;9.188;2023-11-18T09:25:57;7.70;1.00
38239;DHT22;24035;48.900;9.188;2023-11-18T09:28:24;7.80;1.00
38239;DHT22;24035;48.900;9.188;2023-11-18T09:30:50;7.90;1.00
38239;DHT22;24035;48.900;9.188;2023-11-18T09:33:20;8.10;1.00
38239;DHT22;24035;48.900;9.188;2023-11-18T09:36:01;8.40;1.00
38239;DHT22;24035;48.900;9.188;2023-11-18T09:38:30;8.60;99.90
38239;DHT22;24035;48.900;9.188;2023-11-18T09:40:59;8.90;1.00
38239;DHT22;24035;48.900;9.188;2023-11-18T09:43:40;9.00;1.00
38239;DHT22;24035;48.900;9.188;2023-11-18T09:46:17;9.20;1.00
38239;DHT22;24035;48.900;9.188;2023-11-18T09:51:20;9.50;99.90
38239;DHT22;24035;48.900;9.188;2023-11-18T09:53:50;9.60;99.90
38239;DHT22;24035;48.900;9.188;2023-11-18T09:56:31;9.70;99.90
38239;DHT22;24035;48.900;9.188;2023-11-18T09:59:25;9.70;99.90
38239;DHT22;24035;48.900;9.188;2023-11-18T10:01:57;9.80;99.90
38239;DHT22;24035;48.900;9.188;2023-11-18T10:04:24;9.80;99.90
38239;DHT22;24035;48.900;9.188;2023-11-18T10:06:56;10.00;99.90
38239;DHT22;24035;48.900;9.188;2023-11-18T10:09:26;10.20;52.50
38239;DHT22;24035;48.900;9.188;2023-11-18T10:12:07;10.30;46.10
38239;DHT22;24035;48.900;9.188;2023-11-18T10:14:34;10.40;1.00
38239;DHT22;24035;48.900;9.188;2023-11-18T10:17:07;10.40;1.00
38239;DHT22;24035;48.900;9.188;2023-11-18T10:19:56;10.40;48.30
38239;DHT22;24035;48.900;9.188;2023-11-18T10:22:26;10.60;1.00
38239;DHT22;24035;48.900;9.188;2023-11-18T10:24:53;10.60;1.00
38239;DHT22;24035;48.900;9.188;2023-11-18T10:27:27;10.60;1.00
38239;DHT22;24035;48.900;9.188;2023-11-18T10:29:57;10.50;1.00
38239;DHT22;24035;48.900;9.188;2023-11-18T10:32:23;10.40;1.00
38239;DHT22;24035;48.900;9.188;2023-11-18T10:34:58;10.30;99.90
38239;DHT22;24035;48.900;9.188;2023-11-18T10:37:27;10.30;80.60
38239;DHT22;24035;48.900;9.188;2023-11-18T10:39:56;10.50;30.90
38239;DHT22;24035;48.900;9.188;2023-11-18T10:42:26;10.50;1.00
38239;DHT22;24035;48.900;9.188;2023-11-18T10:44:59;10.50;5.90
38239;DHT22;24035;48.900;9.188;2023-11-18T10:47:31;10.40;1.00
38239;DHT22;24035;48.900;9.188;2023-11-18T10:49:57;10.30;1.00
38239;DHT22;24035;48.900;9.188;2023-11-18T10:52:27;10.30;1.00
38239;DHT22;24035;48.900;9.188;2023-11-18T10:55:00;10.30;1.00
38239;DHT22;24035;48.900;9.188;2023-11-18T10:57:33;10.40;1.00
38239;DHT22;24035;48.900;9.188;2023-11-18T11:00:03;10.30;1.00
38239;DHT22;24035;48.900;9.188;2023-11-18T11:02:39;10.30;11.80
38239;DHT22;24035;48.900;9.188;2023-11-18T11:05:07;10.20;32.90
38239;DHT22;24035;48.900;9.188;2023-11-18T11:07:33;10.30;5.90
38239;DHT22;24035;48.900;9.188;2023-11-18T11:10:01;10.40;1.00
38239;DHT22;24035;48.900;9.188;2023-11-18T11:13:00;10.50;1.00
38239;DHT22;24035;48.900;9.188;2023-11-18T11:15:31;10.40;1.00
38239;DHT22;24035;48.900;9.188;2023-11-18T11:18:08;10.30;1.00
38239;DHT22;24035;48.900;9.188;2023-11-18T11:21:06;10.30;1.00
38239;DHT22;24035;48.900;9.188;2023-11-18T11:23:50;10.30;1.00
38239;DHT22;24035;48.900;9.188;2023-11-18T11:31:32;10.90;1.00
38239;DHT22;24035;48.900;9.188;2023-11-18T11:34:22;11.10;1.00
38239;DHT22;24035;48.900;9.188;2023-11-18T11:36:51;11.20;1.00
38239;DHT22;24035;48.900;9.188;2023-11-18T11:39:19;11.10;1.00
38239;DHT22;24035;48.900;9.188;2023-11-18T11:41:52;11.10;1.00
38239;DHT22;24035;48.900;9.188;2023-11-18T11:44:20;11.00;1.00
38239;DHT22;24035;48.900;9.188;2023-11-18T11:46:47;10.90;1.00
38239;DHT22;24035;48.900;9.188;2023-11-18T11:49:20;10.90;1.00
38239;DHT22;24035;48.900;9.188;2023-11-18T11:51:49;10.70;1.00
38239;DHT22;24035;48.900;9.188;2023-11-18T11:54:27;10.70;1.00
38239;DHT22;24035;48.900;9.188;2023-11-18T11:56:57;10.60;1.00
38239;DHT22;24035;48.900;9.188;2023-11-18T12:02:11;10.60;1.00
38239;DHT22;24035;48.900;9.188;2023-11-18T12:04:39;10.50;1.00
38239;DHT22;24035;48.900;9.188;2023-11-18T12:07:08;10.60;1.00
38239;DHT22;24035;48.900;9.188;2023-11-18T12:09:36;10.50;1.00
38239;DHT22;24035;48.900;9.188;2023-11-18T12:12:17;10.50;1.00
38239;DHT22;24035;48.900;9.188;2023-11-18T12:14:58;10.50;1.00
38239;DHT22;24035;48.900;9.188;2023-11-18T12:20:40;10.30;1.00
38239;DHT22;24035;48.900;9.188;2023-11-18T12:23:08;10.30;1.00
38239;DHT22;24035;48.900;9.188;2023-11-18T12:25:43;10.30;1.00
38239;DHT22;24035;48.900;9.188;2023-11-18T12:28:20;10.40;1.00
38239;DHT22;24035;48.900;9.188;2023-11-18T12:30:48;10.20;1.00
38239;DHT22;24035;48.900;9.188;2023-11-18T12:33:18;10.20;1.00
38239;DHT22;24035;48.900;9.188;2023-11-18T12:40:54;10.30;1.00
38239;DHT22;24035;48.900;9.188;2023-11-18T12:43:47;10.40;1.00
38239;DHT22;24035;48.900;9.188;2023-11-18T12:48:57;10.30;1.00
38239;DHT22;24035;48.900;9.188;2023-11-18T12:51:23;10.40;1.00
38239;DHT22;24035;48.900;9.188;2023-11-18T12:53:49;10.20;1.00
38239;DHT22;24035;48.900;9.188;2023-11-18T12:56:19;10.20;1.00
38239;DHT22;24035;48.900;9.188;2023-11-18T12:58:46;10.20;1.00
38239;DHT22;24035;48.900;9.188;2023-11-18T13:01:13;10.10;1.00
38239;DHT22;24035;48.900;9.188;2023-11-18T13:03:40;10.10;1.00
38239;DHT22;24035;48.900;9.188;2023-11-18T13:06:11;9.90;1.00
38239;DHT22;24035;48.900;9.188;2023-11-18T13:08:43;9.80;36.50
38239;DHT22;24035;48.900;9.188;2023-11-18T13:11:09;9.70;99.90
38239;DHT22;24035;48.900;9.188;2023-11-18T13:13:45;9.60;99.90
38239;DHT22;24035;48.900;9.188;2023-11-18T13:16:12;9.60;99.90
38239;DHT22;24035;48.900;9.188;2023-11-18T13:18:47;9.60;99.90
38239;DHT22;24035;48.900;9.188;2023-11-18T13:21:19;9.60;99.60
38239;DHT22;24035;48.900;9.188;2023-11-18T13:23:52;9.50;51.00
38239;DHT22;24035;48.900;9.188;2023-11-18T13:26:19;9.50;1.00
38239;DHT22;24035;48.900;9.188;2023-11-18T13:28:48;9.40;26.90
38239;DHT22;24035;48.900;9.188;2023-11-18T13:31:17;9.40;37.30
38239;DHT22;24035;48.900;9.188;2023-11-18T13:33:44;9.40;48.30
38239;DHT22;24035;48.900;9.188;2023-11-18T13:36:13;9.30;92.30
38239;DHT22;24035;48.900;9.188;2023-11-18T13:38:41;9.30;93.10
38239;DHT22;24035;48.900;9.188;2023-11-18T13:41:09;9.30;99.70
38239;DHT22;24035;48.900;9.188;2023-11-18T13:43:55;9.40;21.50
38239;DHT22;24035;48.900;9.188;2023-11-18T13:46:22;9.30;19.50
38239;DHT22;24035;48.900;9.188;2023-11-18T13:48:48;9.30;22.20
38239;DHT22;24035;48.900;9.188;2023-11-18T13:51:16;9.40;81.10
38239;DHT22;24035;48.900;9.188;2023-11-18T13:53:45;9.30;99.90
38239;DHT22;24035;48.900;9.188;2023-11-18T13:56:13;9.40;99.90
38239;DHT22;24035;48.900;9.188;2023-11-18T13:58:39;9.40;99.90
38239;DHT22;24035;48.900;9.188;2023-11-18T14:01:06;9.50;1.00
38239;DHT22;24035;48.900;9.188;2023-11-18T14:03:35;9.50;1.00
38239;DHT22;24035;48.900;9.188;2023-11-18T14:06:05;9.50;1.00
38239;DHT22;24035;48.900;9.188;2023-11-18T14:08:31;9.50;1.00
38239;DHT22;24035;48.900;9.188;2023-11-18T14:10:57;9.40;1.00
38239;DHT22;24035;48.900;9.188;2023-11-18T14:13:23;9.30;1.00
38239;DHT22;24035;48.900;9.188;2023-11-18T14:15:49;9.30;1.00
38239;DHT22;24035;48.900;9.188;2023-11-18T14:18:21;9.20;1.00
38239;DHT22;24035;48.900;9.188;2023-11-18T14:20:47;9.20;1.00
38239;DHT22;24035;48.900;9.188;2023-11-18T14:23:14;9.10;22.20
38239;DHT22;24035;48.900;9.188;2023-11-18T14:25:39;9.10;99.90
38239;DHT22;24035;48.900;9.188;2023-11-18T14:28:05;9.20;74.00
38239;DHT22;24035;48.900;9.188;2023-11-18T14:30:34;9.10;99.90
38239;DHT22;24035;48.900;9.188;2023-11-18T14:33:01;9.10;99.90
38239;DHT22;24035;48.900;9.188;2023-11-18T14:35:27;9.10;99.90
38239;DHT22;24035;48.900;9.188;2023-11-18T14:37:54;9.00;99.90
38239;DHT22;24035;48.900;9.188;2023-11-18T14:40:21;9.00;99.90
38239;DHT22;24035;48.900;9.188;2023-11-18T14:42:50;9.00;99.90
38239;DHT22;24035;48.900;9.188;2023-11-18T14:45:16;9.00;99.90
38239;DHT22;24035;48.900;9.188;2023-11-18T14:47:44;9.00;99.90
38239;DHT22;24035;48.900;9.188;2023-11-18T14:50:19;9.00;99.90
38239;DHT22;24035;48.900;9.188;2023-11-18T14:52:49;8.90;99.90
38239;DHT22;24035;48.900;9.188;2023-11-18T14:55:29;8.80;99.90
38239;DHT22;24035;48.900;9.188;2023-11-18T14:57:55;8.90;99.90
38239;DHT22;24035;48.900;9.188;2023-11-18T15:00:21;8.90;99.90
38239;DHT22;24035;48.900;9.188;2023-11-18T15:02:52;8.80;99.90
38239;DHT22;24035;48.900;9.188;2023-11-18T15:05:20;8.80;99.90
38239;DHT22;24035;48.900;9.188;2023-11-18T15:07:55;8.80;99.90
38239;DHT22;24035;48.900;9.188;2023-11-18T15:10:23;8.80;1.00
38239;DHT22;24035;48.900;9.188;2023-11-18T15:12:54;8.80;99.90
38239;DHT22;24035;48.900;9.188;2023-11-18T15:15:22;8.90;99.90
38239;DHT22;24035;48.900;9.188;2023-11-18T15:17:48;8.80;1.00
38239;DHT22;24035;48.900;9.188;2023-11-18T15:20:17;8.80;1.00
38239;DHT22;24035;48.900;9.188;2023-11-18T15:22:48;8.80;1.00
38239;DHT22;24035;48.900;9.188;2023-11-18T15:25:14;8.70;1.00
38239;DHT22;24035;48.900;9.188;2023-11-18T15:27:43;8.70;1.00
38239;DHT22;24035;48.900;9.188;2023-11-18T15:30:13;8.70;1.00
38239;DHT22;24035;48.900;9.188;2023-11-18T15:32:41;8.60;1.00
38239;DHT22;24035;48.900;9.188;2023-11-18T15:35:08;8.60;1.00
38239;DHT22;24035;48.900;9.188;2023-11-18T15:37:38;8.50;1.00
38239;DHT22;24035;48.900;9.188;2023-11-18T15:40:10;8.50;1.00
38239;DHT22;24035;48.900;9.188;2023-11-18T15:42:41;8.40;1.00
38239;DHT22;24035;48.900;9.188;2023-11-18T15:45:18;8.40;1.00
38239;DHT22;24035;48.900;9.188;2023-11-18T15:47:44;8.30;1.00
38239;DHT22;24035;48.900;9.188;2023-11-18T15:50:11;8.30;1.00
38239;DHT22;24035;48.900;9.188;2023-11-18T15:52:48;8.30;1.00
38239;DHT22;24035;48.900;9.188;2023-11-18T15:55:15;8.40;1.00
38239;DHT22;24035;48.900;9.188;2023-11-18T15:57:44;8.30;1.00
38239;DHT22;24035;48.900;9.188;2023-11-18T16:00:11;8.40;39.40
38239;DHT22;24035;48.900;9.188;2023-11-18T16:02:58;8.40;1.00
38239;DHT22;24035;48.900;9.188;2023-11-18T16:05:27;8.40;1.00
38239;DHT22;24035;48.900;9.188;2023-11-18T16:07:54;8.40;1.00
38239;DHT22;24035;48.900;9.188;2023-11-18T16:10:22;8.40;1.00
38239;DHT22;24035;48.900;9.188;2023-11-18T16:12:58;8.30;1.00
38239;DHT22;24035;48.900;9.188;2023-11-18T16:15:26;8.30;99.90
38239;DHT22;24035;48.900;9.188;2023-11-18T16:17:53;8.30;99.90
38239;DHT22;24035;48.900;9.188;2023-11-18T16:20:21;8.30;99.90
38239;DHT22;24035;48.900;9.188;2023-11-18T16:22:48;8.20;99.90
38239;DHT22;24035;48.900;9.188;2023-11-18T16:25:19;8.20;99.90
38239;DHT22;24035;48.900;9.188;2023-11-18T16:27:52;8.10;99.90
38239;DHT22;24035;48.900;9.188;2023-11-18T16:30:20;8.20;1.00